sensor_id;sensor_type;location;lat;lon;timestamp;P1;durP1;ratioP1;P2;durP2;ratioP2
41755;SDS011;27435;48.480;9.258;2023-07-16T00:02:03;8.23;;;5.13;;
41755;SDS011;27435;48.480;9.258;2023-07-16T00:04:30;8.13;;;5.47;;
41755;SDS011;27435;48.480;9.258;2023-07-16T00:06:56;10.52;;;5.47;;
41755;SDS011;27435;48.480;9.258;2023-07-16T00:09:21;7.05;;;4.50;;
41755;SDS011;27435;48.480;9.258;2023-07-16T00:11:47;10.27;;;5.68;;
41755;SDS011;27435;48.480;9.258;2023-07-16T00:14:13;9.93;;;3.55;;
41755;SDS011;27435;48.480;9.258;2023-07-16T00:16:38;11.75;;;2.00;;
41755;SDS011;27435;48.480;9.258;2023-07-16T00:19:04;4.28;;;2.47;;
41755;SDS011;27435;48.480;9.258;2023-07-16T00:21:30;5.75;;;2.67;;
41755;SDS011;27435;48.480;9.258;2023-07-16T00:23:55;5.18;;;2.30;;
41755;SDS011;27435;48.480;9.258;2023-07-16T00:26:21;4.40;;;2.72;;
41755;SDS011;27435;48.480;9.258;2023-07-16T00:28:47;4.68;;;2.30;;
41755;SDS011;27435;48.480;9.258;2023-07-16T00:31:12;5.00;;;2.55;;
41755;SDS011;27435;48.480;9.258;2023-07-16T00:33:38;3.70;;;2.33;;
41755;SDS011;27435;48.480;9.258;2023-07-16T00:36:04;4.07;;;2.38;;
41755;SDS011;27435;48.480;9.258;2023-07-16T00:38:29;7.25;;;2.95;;
41755;SDS011;27435;48.480;9.258;2023-07-16T00:40:56;6.93;;;2.55;;
41755;SDS011;27435;48.480;9.258;2023-07-16T00:43:22;5.70;;;2.42;;
41755;SDS011;27435;48.480;9.258;2023-07-16T00:45:47;4.63;;;2.72;;
41755;SDS011;27435;48.480;9.258;2023-07-16T00:48:14;5.22;;;2.67;;
41755;SDS011;27435;48.480;9.258;2023-07-16T00:50:40;5.30;;;2.83;;
41755;SDS011;27435;48.480;9.258;2023-07-16T00:53:06;4.55;;;2.75;;
41755;SDS011;27435;48.480;9.258;2023-07-16T00:55:33;7.22;;;3.63;;
41755;SDS011;27435;48.480;9.258;2023-07-16T00:58:01;5.38;;;3.08;;
41755;SDS011;27435;48.480;9.258;2023-07-16T01:00:30;4.88;;;2.97;;
41755;SDS011;27435;48.480;9.258;2023-07-16T01:03:01;2.70;;;1.75;;
41755;SDS011;27435;48.480;9.258;2023-07-16T01:05:29;3.17;;;1.42;;
41755;SDS011;27435;48.480;9.258;2023-07-16T01:08:01;3.03;;;1.00;;
41755;SDS011;27435;48.480;9.258;2023-07-16T01:10:31;4.50;;;1.38;;
41755;SDS011;27435;48.480;9.258;2023-07-16T01:12:57;2.38;;;1.00;;
41755;SDS011;27435;48.480;9.258;2023-07-16T01:15:24;2.47;;;1.10;;
41755;SDS011;27435;48.480;9.258;2023-07-16T01:17:49;2.50;;;1.38;;
41755;SDS011;27435;48.480;9.258;2023-07-16T01:20:15;2.35;;;1.00;;
41755;SDS011;27435;48.480;9.258;2023-07-16T01:31:02;2.10;;;1.20;;
41755;SDS011;27435;48.480;9.258;2023-07-16T01:33:29;2.40;;;1.08;;
41755;SDS011;27435;48.480;9.258;2023-07-16T01:35:56;4.38;;;1.10;;
41755;SDS011;27435;48.480;9.258;2023-07-16T01:38:23;2.10;;;0.95;;
41755;SDS011;27435;48.480;9.258;2023-07-16T01:40:49;2.70;;;1.25;;
41755;SDS011;27435;48.480;9.258;2023-07-16T01:43:14;3.00;;;0.90;;
41755;SDS011;27435;48.480;9.258;2023-07-16T01:45:40;3.65;;;1.15;;
41755;SDS011;27435;48.480;9.258;2023-07-16T01:48:39;2.28;;;1.20;;
41755;SDS011;27435;48.480;9.258;2023-07-16T01:51:02;3.22;;;1.17;;
41755;SDS011;27435;48.480;9.258;2023-07-16T01:53:28;2.25;;;0.90;;
41755;SDS011;27435;48.480;9.258;2023-07-16T01:55:54;2.13;;;1.00;;
41755;SDS011;27435;48.480;9.258;2023-07-16T01:58:20;3.10;;;1.10;;
41755;SDS011;27435;48.480;9.258;2023-07-16T02:00:45;2.60;;;1.08;;
41755;SDS011;27435;48.480;9.258;2023-07-16T02:03:13;1.98;;;1.10;;
41755;SDS011;27435;48.480;9.258;2023-07-16T02:05:38;2.30;;;1.00;;
41755;SDS011;27435;48.480;9.258;2023-07-16T02:08:04;2.00;;;1.10;;
41755;SDS011;27435;48.480;9.258;2023-07-16T02:10:29;4.47;;;1.20;;
41755;SDS011;27435;48.480;9.258;2023-07-16T02:12:56;2.15;;;1.20;;
41755;SDS011;27435;48.480;9.258;2023-07-16T02:15:21;5.05;;;1.48;;
41755;SDS011;27435;48.480;9.258;2023-07-16T02:17:47;2.35;;;1.10;;
41755;SDS011;27435;48.480;9.258;2023-07-16T02:20:13;7.07;;;1.70;;
41755;SDS011;27435;48.480;9.258;2023-07-16T02:22:38;3.40;;;1.40;;
41755;SDS011;27435;48.480;9.258;2023-07-16T02:25:04;3.13;;;1.35;;
41755;SDS011;27435;48.480;9.258;2023-07-16T02:27:30;5.22;;;1.40;;
41755;SDS011;27435;48.480;9.258;2023-07-16T02:29:56;4.25;;;1.27;;
41755;SDS011;27435;48.480;9.258;2023-07-16T02:32:22;2.47;;;1.20;;
41755;SDS011;27435;48.480;9.258;2023-07-16T02:34:48;2.70;;;1.30;;
41755;SDS011;27435;48.480;9.258;2023-07-16T02:37:14;2.55;;;1.48;;
41755;SDS011;27435;48.480;9.258;2023-07-16T02:39:41;3.00;;;1.35;;
41755;SDS011;27435;48.480;9.258;2023-07-16T02:42:07;5.95;;;1.75;;
41755;SDS011;27435;48.480;9.258;2023-07-16T02:44:33;5.05;;;1.63;;
41755;SDS011;27435;48.480;9.258;2023-07-16T02:47:03;2.67;;;1.52;;
41755;SDS011;27435;48.480;9.258;2023-07-16T02:49:29;3.25;;;1.60;;
41755;SDS011;27435;48.480;9.258;2023-07-16T02:51:54;2.55;;;1.70;;
41755;SDS011;27435;48.480;9.258;2023-07-16T02:54:20;3.15;;;1.73;;
41755;SDS011;27435;48.480;9.258;2023-07-16T02:56:45;4.30;;;1.85;;
41755;SDS011;27435;48.480;9.258;2023-07-16T02:59:12;3.72;;;1.73;;
41755;SDS011;27435;48.480;9.258;2023-07-16T03:01:37;8.82;;;1.63;;
41755;SDS011;27435;48.480;9.258;2023-07-16T03:04:03;4.75;;;2.08;;
41755;SDS011;27435;48.480;9.258;2023-07-16T03:06:29;6.20;;;1.50;;
41755;SDS011;27435;48.480;9.258;2023-07-16T03:08:54;7.53;;;1.50;;
41755;SDS011;27435;48.480;9.258;2023-07-16T03:11:20;3.13;;;1.85;;
41755;SDS011;27435;48.480;9.258;2023-07-16T03:13:45;3.35;;;1.90;;
41755;SDS011;27435;48.480;9.258;2023-07-16T03:16:11;2.25;;;1.42;;
41755;SDS011;27435;48.480;9.258;2023-07-16T03:18:36;2.45;;;1.40;;
41755;SDS011;27435;48.480;9.258;2023-07-16T03:21:02;4.18;;;1.60;;
41755;SDS011;27435;48.480;9.258;2023-07-16T03:23:28;6.88;;;1.80;;
41755;SDS011;27435;48.480;9.258;2023-07-16T03:25:53;6.57;;;1.40;;
41755;SDS011;27435;48.480;9.258;2023-07-16T03:28:19;3.33;;;1.45;;
41755;SDS011;27435;48.480;9.258;2023-07-16T03:30:48;2.90;;;1.40;;
41755;SDS011;27435;48.480;9.258;2023-07-16T03:33:14;2.67;;;1.40;;
41755;SDS011;27435;48.480;9.258;2023-07-16T03:35:44;2.25;;;1.23;;
41755;SDS011;27435;48.480;9.258;2023-07-16T03:38:11;3.25;;;1.38;;
41755;SDS011;27435;48.480;9.258;2023-07-16T03:40:37;3.75;;;1.20;;
41755;SDS011;27435;48.480;9.258;2023-07-16T03:43:02;3.58;;;1.02;;
41755;SDS011;27435;48.480;9.258;2023-07-16T03:45:28;1.90;;;1.13;;
41755;SDS011;27435;48.480;9.258;2023-07-16T03:47:54;3.33;;;1.52;;
41755;SDS011;27435;48.480;9.258;2023-07-16T03:50:19;4.22;;;1.20;;
41755;SDS011;27435;48.480;9.258;2023-07-16T03:52:46;1.95;;;0.77;;
41755;SDS011;27435;48.480;9.258;2023-07-16T03:55:12;2.72;;;1.13;;
41755;SDS011;27435;48.480;9.258;2023-07-16T03:57:38;2.92;;;1.30;;
41755;SDS011;27435;48.480;9.258;2023-07-16T04:00:05;2.17;;;1.02;;
41755;SDS011;27435;48.480;9.258;2023-07-16T04:02:33;2.90;;;1.33;;
41755;SDS011;27435;48.480;9.258;2023-07-16T04:04:59;2.00;;;1.30;;
41755;SDS011;27435;48.480;9.258;2023-07-16T04:07:25;4.15;;;1.30;;
41755;SDS011;27435;48.480;9.258;2023-07-16T04:09:51;1.95;;;1.05;;
41755;SDS011;27435;48.480;9.258;2023-07-16T04:12:16;3.13;;;1.20;;
41755;SDS011;27435;48.480;9.258;2023-07-16T04:14:42;3.70;;;1.75;;
41755;SDS011;27435;48.480;9.258;2023-07-16T04:17:08;3.78;;;1.10;;
41755;SDS011;27435;48.480;9.258;2023-07-16T04:19:34;2.47;;;1.25;;
41755;SDS011;27435;48.480;9.258;2023-07-16T04:22:00;3.78;;;1.30;;
41755;SDS011;27435;48.480;9.258;2023-07-16T04:24:25;2.20;;;1.00;;
41755;SDS011;27435;48.480;9.258;2023-07-16T04:26:54;2.03;;;1.05;;
41755;SDS011;27435;48.480;9.258;2023-07-16T04:29:20;3.00;;;0.90;;
41755;SDS011;27435;48.480;9.258;2023-07-16T04:31:46;2.10;;;1.10;;
41755;SDS011;27435;48.480;9.258;2023-07-16T04:34:11;4.88;;;1.30;;
41755;SDS011;27435;48.480;9.258;2023-07-16T04:36:38;2.10;;;1.10;;
41755;SDS011;27435;48.480;9.258;2023-07-16T04:39:04;3.40;;;1.25;;
41755;SDS011;27435;48.480;9.258;2023-07-16T04:41:29;3.17;;;0.90;;
41755;SDS011;27435;48.480;9.258;2023-07-16T04:43:55;2.35;;;1.30;;
41755;SDS011;27435;48.480;9.258;2023-07-16T04:46:21;1.80;;;0.90;;
41755;SDS011;27435;48.480;9.258;2023-07-16T04:48:47;1.40;;;0.75;;
41755;SDS011;27435;48.480;9.258;2023-07-16T04:51:12;1.80;;;1.10;;
41755;SDS011;27435;48.480;9.258;2023-07-16T04:53:38;1.77;;;0.90;;
41755;SDS011;27435;48.480;9.258;2023-07-16T04:56:04;5.45;;;1.52;;
41755;SDS011;27435;48.480;9.258;2023-07-16T04:58:35;2.10;;;1.05;;
41755;SDS011;27435;48.480;9.258;2023-07-16T05:01:00;3.20;;;0.98;;
41755;SDS011;27435;48.480;9.258;2023-07-16T05:03:26;2.00;;;1.10;;
41755;SDS011;27435;48.480;9.258;2023-07-16T05:05:52;4.10;;;1.40;;
41755;SDS011;27435;48.480;9.258;2023-07-16T05:08:17;2.75;;;0.90;;
41755;SDS011;27435;48.480;9.258;2023-07-16T05:10:43;6.53;;;1.30;;
41755;SDS011;27435;48.480;9.258;2023-07-16T05:13:08;3.63;;;0.93;;
41755;SDS011;27435;48.480;9.258;2023-07-16T05:15:34;2.10;;;0.90;;
41755;SDS011;27435;48.480;9.258;2023-07-16T05:17:59;3.08;;;1.30;;
41755;SDS011;27435;48.480;9.258;2023-07-16T05:20:25;4.00;;;1.00;;
41755;SDS011;27435;48.480;9.258;2023-07-16T05:22:51;2.55;;;0.93;;
41755;SDS011;27435;48.480;9.258;2023-07-16T05:25:16;1.77;;;0.80;;
41755;SDS011;27435;48.480;9.258;2023-07-16T05:27:42;4.53;;;1.20;;
41755;SDS011;27435;48.480;9.258;2023-07-16T05:30:07;5.65;;;1.10;;
41755;SDS011;27435;48.480;9.258;2023-07-16T05:32:33;2.33;;;1.00;;
41755;SDS011;27435;48.480;9.258;2023-07-16T05:34:59;4.63;;;1.00;;
41755;SDS011;27435;48.480;9.258;2023-07-16T05:37:25;5.68;;;1.60;;
41755;SDS011;27435;48.480;9.258;2023-07-16T05:39:51;3.83;;;1.00;;
41755;SDS011;27435;48.480;9.258;2023-07-16T05:42:17;2.80;;;1.10;;
41755;SDS011;27435;48.480;9.258;2023-07-16T05:44:42;2.97;;;1.17;;
41755;SDS011;27435;48.480;9.258;2023-07-16T05:47:09;4.78;;;0.90;;
41755;SDS011;27435;48.480;9.258;2023-07-16T05:49:35;4.15;;;1.00;;
41755;SDS011;27435;48.480;9.258;2023-07-16T05:52:00;4.72;;;1.50;;
41755;SDS011;27435;48.480;9.258;2023-07-16T05:54:26;7.05;;;1.45;;
41755;SDS011;27435;48.480;9.258;2023-07-16T05:56:52;2.92;;;1.15;;
41755;SDS011;27435;48.480;9.258;2023-07-16T05:59:18;2.58;;;0.88;;
41755;SDS011;27435;48.480;9.258;2023-07-16T06:01:43;5.72;;;2.08;;
41755;SDS011;27435;48.480;9.258;2023-07-16T06:04:09;6.88;;;1.50;;
41755;SDS011;27435;48.480;9.258;2023-07-16T06:06:35;3.08;;;1.30;;
41755;SDS011;27435;48.480;9.258;2023-07-16T06:09:00;6.60;;;1.10;;
41755;SDS011;27435;48.480;9.258;2023-07-16T06:11:26;3.42;;;1.15;;
41755;SDS011;27435;48.480;9.258;2023-07-16T06:13:55;5.63;;;1.75;;
41755;SDS011;27435;48.480;9.258;2023-07-16T06:16:20;3.85;;;1.27;;
41755;SDS011;27435;48.480;9.258;2023-07-16T06:18:46;4.75;;;1.00;;
41755;SDS011;27435;48.480;9.258;2023-07-16T06:21:12;4.38;;;1.20;;
41755;SDS011;27435;48.480;9.258;2023-07-16T06:23:38;5.13;;;1.60;;
41755;SDS011;27435;48.480;9.258;2023-07-16T06:26:04;3.88;;;1.33;;
41755;SDS011;27435;48.480;9.258;2023-07-16T06:28:29;5.07;;;1.75;;
41755;SDS011;27435;48.480;9.258;2023-07-16T06:30:55;3.13;;;1.08;;
41755;SDS011;27435;48.480;9.258;2023-07-16T06:33:21;2.53;;;0.98;;
41755;SDS011;27435;48.480;9.258;2023-07-16T06:35:47;3.60;;;0.90;;
41755;SDS011;27435;48.480;9.258;2023-07-16T06:38:13;4.50;;;1.63;;
41755;SDS011;27435;48.480;9.258;2023-07-16T06:40:45;2.95;;;1.20;;
41755;SDS011;27435;48.480;9.258;2023-07-16T06:43:12;3.05;;;1.10;;
41755;SDS011;27435;48.480;9.258;2023-07-16T06:45:37;4.57;;;1.40;;
41755;SDS011;27435;48.480;9.258;2023-07-16T06:48:03;5.75;;;1.40;;
41755;SDS011;27435;48.480;9.258;2023-07-16T06:50:29;3.15;;;1.15;;
41755;SDS011;27435;48.480;9.258;2023-07-16T06:52:54;4.60;;;1.40;;
41755;SDS011;27435;48.480;9.258;2023-07-16T06:55:20;2.75;;;1.10;;
41755;SDS011;27435;48.480;9.258;2023-07-16T06:57:46;6.00;;;1.50;;
41755;SDS011;27435;48.480;9.258;2023-07-16T07:00:11;3.63;;;1.00;;
41755;SDS011;27435;48.480;9.258;2023-07-16T07:02:37;6.18;;;1.38;;
41755;SDS011;27435;48.480;9.258;2023-07-16T07:05:03;4.78;;;1.25;;
41755;SDS011;27435;48.480;9.258;2023-07-16T07:07:29;3.95;;;1.15;;
41755;SDS011;27435;48.480;9.258;2023-07-16T07:09:55;4.03;;;1.20;;
41755;SDS011;27435;48.480;9.258;2023-07-16T07:12:20;3.50;;;1.30;;
41755;SDS011;27435;48.480;9.258;2023-07-16T07:14:46;3.70;;;1.00;;
41755;SDS011;27435;48.480;9.258;2023-07-16T07:17:13;5.07;;;1.20;;
41755;SDS011;27435;48.480;9.258;2023-07-16T07:19:39;3.40;;;1.52;;
41755;SDS011;27435;48.480;9.258;2023-07-16T07:22:06;5.80;;;1.50;;
41755;SDS011;27435;48.480;9.258;2023-07-16T07:24:31;4.40;;;1.50;;
41755;SDS011;27435;48.480;9.258;2023-07-16T07:26:57;4.05;;;1.15;;
41755;SDS011;27435;48.480;9.258;2023-07-16T07:29:23;4.85;;;1.80;;
41755;SDS011;27435;48.480;9.258;2023-07-16T07:31:48;3.03;;;1.05;;
41755;SDS011;27435;48.480;9.258;2023-07-16T07:34:14;3.65;;;1.20;;
41755;SDS011;27435;48.480;9.258;2023-07-16T07:36:39;2.58;;;1.17;;
41755;SDS011;27435;48.480;9.258;2023-07-16T07:39:05;4.88;;;1.02;;
41755;SDS011;27435;48.480;9.258;2023-07-16T07:41:31;3.85;;;1.55;;
41755;SDS011;27435;48.480;9.258;2023-07-16T07:43:56;5.40;;;1.25;;
41755;SDS011;27435;48.480;9.258;2023-07-16T07:46:22;5.40;;;1.48;;
41755;SDS011;27435;48.480;9.258;2023-07-16T07:48:48;5.10;;;1.45;;
41755;SDS011;27435;48.480;9.258;2023-07-16T07:51:13;3.65;;;1.25;;
41755;SDS011;27435;48.480;9.258;2023-07-16T07:53:39;3.20;;;1.10;;
41755;SDS011;27435;48.480;9.258;2023-07-16T07:56:04;3.13;;;1.10;;
41755;SDS011;27435;48.480;9.258;2023-07-16T07:58:30;4.53;;;1.20;;
41755;SDS011;27435;48.480;9.258;2023-07-16T08:00:56;3.88;;;1.25;;
41755;SDS011;27435;48.480;9.258;2023-07-16T08:03:21;4.30;;;1.90;;
41755;SDS011;27435;48.480;9.258;2023-07-16T08:05:49;3.75;;;1.17;;
41755;SDS011;27435;48.480;9.258;2023-07-16T08:08:15;5.82;;;1.30;;
41755;SDS011;27435;48.480;9.258;2023-07-16T08:10:41;3.08;;;1.10;;
41755;SDS011;27435;48.480;9.258;2023-07-16T08:13:07;6.60;;;1.17;;
41755;SDS011;27435;48.480;9.258;2023-07-16T08:15:33;5.80;;;1.33;;
41755;SDS011;27435;48.480;9.258;2023-07-16T08:17:58;2.42;;;1.15;;
41755;SDS011;27435;48.480;9.258;2023-07-16T08:20:24;3.13;;;1.20;;
41755;SDS011;27435;48.480;9.258;2023-07-16T08:22:51;3.60;;;1.00;;
41755;SDS011;27435;48.480;9.258;2023-07-16T08:25:16;3.00;;;1.27;;
41755;SDS011;27435;48.480;9.258;2023-07-16T08:27:43;4.13;;;1.23;;
41755;SDS011;27435;48.480;9.258;2023-07-16T08:30:09;4.55;;;1.58;;
41755;SDS011;27435;48.480;9.258;2023-07-16T08:32:35;3.33;;;1.10;;
41755;SDS011;27435;48.480;9.258;2023-07-16T08:35:00;6.20;;;1.13;;
41755;SDS011;27435;48.480;9.258;2023-07-16T08:37:26;2.28;;;1.20;;
41755;SDS011;27435;48.480;9.258;2023-07-16T08:39:52;4.80;;;0.88;;
41755;SDS011;27435;48.480;9.258;2023-07-16T08:42:21;4.80;;;1.40;;
41755;SDS011;27435;48.480;9.258;2023-07-16T08:44:49;4.55;;;1.42;;
41755;SDS011;27435;48.480;9.258;2023-07-16T08:47:16;4.93;;;1.30;;
41755;SDS011;27435;48.480;9.258;2023-07-16T08:49:42;2.88;;;1.08;;
41755;SDS011;27435;48.480;9.258;2023-07-16T08:52:23;2.70;;;1.15;;
41755;SDS011;27435;48.480;9.258;2023-07-16T08:54:51;4.53;;;1.20;;
41755;SDS011;27435;48.480;9.258;2023-07-16T08:57:16;4.68;;;1.52;;
41755;SDS011;27435;48.480;9.258;2023-07-16T08:59:44;4.20;;;1.02;;
41755;SDS011;27435;48.480;9.258;2023-07-16T09:02:12;4.93;;;1.23;;
41755;SDS011;27435;48.480;9.258;2023-07-16T09:04:38;5.22;;;1.38;;
41755;SDS011;27435;48.480;9.258;2023-07-16T09:07:03;3.67;;;0.90;;
41755;SDS011;27435;48.480;9.258;2023-07-16T09:09:29;4.40;;;1.27;;
41755;SDS011;27435;48.480;9.258;2023-07-16T09:11:55;5.25;;;1.33;;
41755;SDS011;27435;48.480;9.258;2023-07-16T09:14:21;5.10;;;1.10;;
41755;SDS011;27435;48.480;9.258;2023-07-16T09:16:50;3.45;;;1.30;;
41755;SDS011;27435;48.480;9.258;2023-07-16T09:19:16;3.05;;;1.20;;
41755;SDS011;27435;48.480;9.258;2023-07-16T09:21:47;3.28;;;1.15;;
41755;SDS011;27435;48.480;9.258;2023-07-16T09:24:13;4.18;;;1.50;;
41755;SDS011;27435;48.480;9.258;2023-07-16T09:26:39;4.60;;;1.13;;
41755;SDS011;27435;48.480;9.258;2023-07-16T09:29:12;7.47;;;1.15;;
41755;SDS011;27435;48.480;9.258;2023-07-16T09:31:37;5.63;;;1.25;;
41755;SDS011;27435;48.480;9.258;2023-07-16T09:34:03;4.55;;;1.63;;
41755;SDS011;27435;48.480;9.258;2023-07-16T09:36:29;3.22;;;1.10;;
41755;SDS011;27435;48.480;9.258;2023-07-16T09:38:54;6.32;;;1.30;;
41755;SDS011;27435;48.480;9.258;2023-07-16T09:41:22;7.78;;;1.60;;
41755;SDS011;27435;48.480;9.258;2023-07-16T09:43:48;5.50;;;1.23;;
41755;SDS011;27435;48.480;9.258;2023-07-16T09:46:13;6.78;;;1.13;;
41755;SDS011;27435;48.480;9.258;2023-07-16T09:48:39;3.20;;;1.10;;
41755;SDS011;27435;48.480;9.258;2023-07-16T09:51:05;3.53;;;1.23;;
41755;SDS011;27435;48.480;9.258;2023-07-16T09:53:37;2.40;;;1.00;;
41755;SDS011;27435;48.480;9.258;2023-07-16T09:56:06;6.38;;;1.58;;
41755;SDS011;27435;48.480;9.258;2023-07-16T09:58:35;4.15;;;1.30;;
41755;SDS011;27435;48.480;9.258;2023-07-16T10:01:01;2.35;;;0.90;;
41755;SDS011;27435;48.480;9.258;2023-07-16T10:03:28;4.22;;;1.85;;
41755;SDS011;27435;48.480;9.258;2023-07-16T10:05:54;3.00;;;1.00;;
41755;SDS011;27435;48.480;9.258;2023-07-16T10:08:33;3.63;;;1.05;;
41755;SDS011;27435;48.480;9.258;2023-07-16T10:11:00;4.00;;;1.23;;
41755;SDS011;27435;48.480;9.258;2023-07-16T10:13:26;4.30;;;1.05;;
41755;SDS011;27435;48.480;9.258;2023-07-16T10:15:53;7.78;;;1.48;;
41755;SDS011;27435;48.480;9.258;2023-07-16T10:18:29;2.80;;;0.95;;
41755;SDS011;27435;48.480;9.258;2023-07-16T10:21:02;3.28;;;1.48;;
41755;SDS011;27435;48.480;9.258;2023-07-16T10:23:38;3.65;;;1.20;;
41755;SDS011;27435;48.480;9.258;2023-07-16T10:26:06;5.50;;;1.43;;
41755;SDS011;27435;48.480;9.258;2023-07-16T10:28:33;3.75;;;1.08;;
41755;SDS011;27435;48.480;9.258;2023-07-16T10:30:59;3.22;;;1.65;;
41755;SDS011;27435;48.480;9.258;2023-07-16T10:33:25;3.33;;;1.02;;
41755;SDS011;27435;48.480;9.258;2023-07-16T10:35:50;6.05;;;1.38;;
41755;SDS011;27435;48.480;9.258;2023-07-16T10:38:16;3.72;;;1.13;;
41755;SDS011;27435;48.480;9.258;2023-07-16T10:40:45;2.75;;;1.05;;
41755;SDS011;27435;48.480;9.258;2023-07-16T10:43:11;2.60;;;0.82;;
41755;SDS011;27435;48.480;9.258;2023-07-16T10:45:37;3.42;;;1.10;;
41755;SDS011;27435;48.480;9.258;2023-07-16T10:48:04;3.83;;;1.10;;
41755;SDS011;27435;48.480;9.258;2023-07-16T10:50:31;2.30;;;1.00;;
41755;SDS011;27435;48.480;9.258;2023-07-16T10:52:59;4.10;;;1.23;;
41755;SDS011;27435;48.480;9.258;2023-07-16T10:55:26;1.88;;;0.80;;
41755;SDS011;27435;48.480;9.258;2023-07-16T10:57:53;3.42;;;1.17;;
41755;SDS011;27435;48.480;9.258;2023-07-16T11:00:19;3.08;;;1.30;;
41755;SDS011;27435;48.480;9.258;2023-07-16T11:02:46;3.58;;;1.50;;
41755;SDS011;27435;48.480;9.258;2023-07-16T11:05:14;2.88;;;1.38;;
41755;SDS011;27435;48.480;9.258;2023-07-16T11:07:47;5.28;;;1.65;;
41755;SDS011;27435;48.480;9.258;2023-07-16T11:10:16;4.28;;;1.70;;
41755;SDS011;27435;48.480;9.258;2023-07-16T11:12:42;4.35;;;1.00;;
41755;SDS011;27435;48.480;9.258;2023-07-16T11:15:09;6.10;;;1.15;;
41755;SDS011;27435;48.480;9.258;2023-07-16T11:17:37;3.67;;;1.13;;
41755;SDS011;27435;48.480;9.258;2023-07-16T11:20:05;3.70;;;1.10;;
41755;SDS011;27435;48.480;9.258;2023-07-16T11:22:36;8.15;;;1.13;;
41755;SDS011;27435;48.480;9.258;2023-07-16T11:25:02;3.95;;;1.17;;
41755;SDS011;27435;48.480;9.258;2023-07-16T11:27:30;4.30;;;1.42;;
41755;SDS011;27435;48.480;9.258;2023-07-16T11:29:58;3.75;;;1.15;;
41755;SDS011;27435;48.480;9.258;2023-07-16T11:32:31;2.92;;;1.17;;
41755;SDS011;27435;48.480;9.258;2023-07-16T11:34:57;4.10;;;1.20;;
41755;SDS011;27435;48.480;9.258;2023-07-16T11:37:27;4.47;;;1.30;;
41755;SDS011;27435;48.480;9.258;2023-07-16T11:39:57;2.70;;;1.10;;
41755;SDS011;27435;48.480;9.258;2023-07-16T11:42:35;3.88;;;1.30;;
41755;SDS011;27435;48.480;9.258;2023-07-16T11:45:02;4.13;;;1.40;;
41755;SDS011;27435;48.480;9.258;2023-07-16T11:47:29;4.32;;;1.35;;
41755;SDS011;27435;48.480;9.258;2023-07-16T11:49:55;4.55;;;1.08;;
41755;SDS011;27435;48.480;9.258;2023-07-16T11:54:49;5.88;;;1.45;;
41755;SDS011;27435;48.480;9.258;2023-07-16T11:57:16;4.55;;;1.50;;
41755;SDS011;27435;48.480;9.258;2023-07-16T11:59:41;6.45;;;1.20;;
41755;SDS011;27435;48.480;9.258;2023-07-16T12:02:07;8.18;;;1.50;;
41755;SDS011;27435;48.480;9.258;2023-07-16T12:04:33;2.88;;;1.23;;
41755;SDS011;27435;48.480;9.258;2023-07-16T12:06:59;3.90;;;1.55;;
41755;SDS011;27435;48.480;9.258;2023-07-16T12:09:24;4.32;;;1.20;;
41755;SDS011;27435;48.480;9.258;2023-07-16T12:11:50;3.42;;;1.25;;
41755;SDS011;27435;48.480;9.258;2023-07-16T12:14:16;5.93;;;1.27;;
41755;SDS011;27435;48.480;9.258;2023-07-16T12:16:41;3.47;;;1.27;;
41755;SDS011;27435;48.480;9.258;2023-07-16T12:19:08;4.63;;;1.20;;
41755;SDS011;27435;48.480;9.258;2023-07-16T12:21:34;5.30;;;1.40;;
41755;SDS011;27435;48.480;9.258;2023-07-16T12:24:00;5.75;;;1.60;;
41755;SDS011;27435;48.480;9.258;2023-07-16T12:26:26;3.35;;;1.60;;
41755;SDS011;27435;48.480;9.258;2023-07-16T12:28:52;4.30;;;1.17;;
41755;SDS011;27435;48.480;9.258;2023-07-16T12:31:17;7.00;;;1.58;;
41755;SDS011;27435;48.480;9.258;2023-07-16T12:33:45;3.78;;;1.30;;
41755;SDS011;27435;48.480;9.258;2023-07-16T12:36:11;4.13;;;1.58;;
41755;SDS011;27435;48.480;9.258;2023-07-16T12:38:37;4.00;;;1.10;;
41755;SDS011;27435;48.480;9.258;2023-07-16T12:41:03;4.20;;;1.30;;
41755;SDS011;27435;48.480;9.258;2023-07-16T12:43:29;5.05;;;1.33;;
41755;SDS011;27435;48.480;9.258;2023-07-16T12:45:54;3.42;;;1.40;;
41755;SDS011;27435;48.480;9.258;2023-07-16T12:48:20;3.00;;;1.55;;
41755;SDS011;27435;48.480;9.258;2023-07-16T12:50:45;4.63;;;1.27;;
41755;SDS011;27435;48.480;9.258;2023-07-16T12:53:11;4.38;;;1.40;;
41755;SDS011;27435;48.480;9.258;2023-07-16T12:55:37;3.08;;;1.30;;
41755;SDS011;27435;48.480;9.258;2023-07-16T12:58:03;2.78;;;1.38;;
41755;SDS011;27435;48.480;9.258;2023-07-16T13:00:29;3.97;;;1.50;;
41755;SDS011;27435;48.480;9.258;2023-07-16T13:02:54;3.08;;;1.38;;
41755;SDS011;27435;48.480;9.258;2023-07-16T13:05:20;4.72;;;1.55;;
41755;SDS011;27435;48.480;9.258;2023-07-16T13:07:45;3.00;;;1.30;;
41755;SDS011;27435;48.480;9.258;2023-07-16T13:10:11;4.25;;;1.52;;
41755;SDS011;27435;48.480;9.258;2023-07-16T13:12:37;5.07;;;1.48;;
41755;SDS011;27435;48.480;9.258;2023-07-16T13:15:02;2.55;;;0.98;;
41755;SDS011;27435;48.480;9.258;2023-07-16T13:17:28;5.00;;;1.40;;
41755;SDS011;27435;48.480;9.258;2023-07-16T13:19:54;7.47;;;1.40;;
41755;SDS011;27435;48.480;9.258;2023-07-16T13:22:19;4.82;;;1.90;;
41755;SDS011;27435;48.480;9.258;2023-07-16T13:24:45;3.88;;;1.38;;
41755;SDS011;27435;48.480;9.258;2023-07-16T13:27:19;5.88;;;1.77;;
41755;SDS011;27435;48.480;9.258;2023-07-16T13:29:46;4.80;;;1.40;;
41755;SDS011;27435;48.480;9.258;2023-07-16T13:32:11;4.75;;;1.50;;
41755;SDS011;27435;48.480;9.258;2023-07-16T13:34:37;2.67;;;1.10;;
41755;SDS011;27435;48.480;9.258;2023-07-16T13:37:03;3.75;;;1.25;;
41755;SDS011;27435;48.480;9.258;2023-07-16T13:39:29;3.63;;;1.13;;
41755;SDS011;27435;48.480;9.258;2023-07-16T13:41:54;3.90;;;1.20;;
41755;SDS011;27435;48.480;9.258;2023-07-16T13:44:20;4.72;;;1.23;;
41755;SDS011;27435;48.480;9.258;2023-07-16T13:46:46;3.35;;;1.13;;
41755;SDS011;27435;48.480;9.258;2023-07-16T13:49:12;2.80;;;1.25;;
41755;SDS011;27435;48.480;9.258;2023-07-16T13:51:38;7.93;;;1.40;;
41755;SDS011;27435;48.480;9.258;2023-07-16T13:54:04;3.20;;;1.13;;
41755;SDS011;27435;48.480;9.258;2023-07-16T13:56:30;7.88;;;1.38;;
41755;SDS011;27435;48.480;9.258;2023-07-16T13:58:55;4.13;;;1.08;;
41755;SDS011;27435;48.480;9.258;2023-07-16T14:01:21;4.30;;;1.30;;
41755;SDS011;27435;48.480;9.258;2023-07-16T14:03:48;4.00;;;1.25;;
41755;SDS011;27435;48.480;9.258;2023-07-16T14:06:13;4.95;;;1.38;;
41755;SDS011;27435;48.480;9.258;2023-07-16T14:08:39;8.35;;;1.27;;
41755;SDS011;27435;48.480;9.258;2023-07-16T14:11:04;3.97;;;1.30;;
41755;SDS011;27435;48.480;9.258;2023-07-16T14:13:30;2.45;;;1.05;;
41755;SDS011;27435;48.480;9.258;2023-07-16T14:15:56;4.18;;;1.10;;
41755;SDS011;27435;48.480;9.258;2023-07-16T14:18:21;3.97;;;1.52;;
41755;SDS011;27435;48.480;9.258;2023-07-16T14:20:47;4.70;;;1.52;;
41755;SDS011;27435;48.480;9.258;2023-07-16T14:23:13;4.10;;;1.20;;
41755;SDS011;27435;48.480;9.258;2023-07-16T14:25:38;4.53;;;1.35;;
41755;SDS011;27435;48.480;9.258;2023-07-16T14:28:04;4.05;;;1.40;;
41755;SDS011;27435;48.480;9.258;2023-07-16T14:30:29;5.20;;;1.33;;
41755;SDS011;27435;48.480;9.258;2023-07-16T14:32:55;3.90;;;1.48;;
41755;SDS011;27435;48.480;9.258;2023-07-16T14:35:21;5.57;;;1.73;;
41755;SDS011;27435;48.480;9.258;2023-07-16T14:37:47;5.53;;;1.60;;
41755;SDS011;27435;48.480;9.258;2023-07-16T14:40:13;3.58;;;1.13;;
41755;SDS011;27435;48.480;9.258;2023-07-16T14:42:39;3.92;;;1.40;;
41755;SDS011;27435;48.480;9.258;2023-07-16T14:45:05;3.40;;;1.20;;
41755;SDS011;27435;48.480;9.258;2023-07-16T14:47:33;3.05;;;1.30;;
41755;SDS011;27435;48.480;9.258;2023-07-16T14:49:58;4.20;;;1.25;;
41755;SDS011;27435;48.480;9.258;2023-07-16T14:52:24;3.38;;;1.50;;
41755;SDS011;27435;48.480;9.258;2023-07-16T14:54:50;4.28;;;1.10;;